createdAt,value
2023-03-24T00:00:30.087Z,10.05
2023-03-24T00:03:01.841Z,9.79
2023-03-24T00:05:30.568Z,9.49
2023-03-24T00:08:02.167Z,9.40
2023-03-24T00:10:30.943Z,9.48
2023-03-24T00:12:58.779Z,9.68
2023-03-24T00:15:25.943Z,9.34
2023-03-24T00:17:56.342Z,9.20
2023-03-24T00:20:24.982Z,9.30
2023-03-24T00:22:57.333Z,9.39
2023-03-24T00:25:30.166Z,9.47
2023-03-24T00:27:58.125Z,9.68
2023-03-24T00:30:26.327Z,9.40
2023-03-24T00:32:53.902Z,9.12
2023-03-24T00:35:21.249Z,9.16
2023-03-24T00:37:52.167Z,9.47
2023-03-24T00:40:21.250Z,9.41
2023-03-24T00:42:49.535Z,9.17
2023-03-24T00:45:23.845Z,9.53
2023-03-24T00:47:54.476Z,9.40
2023-03-24T00:50:27.621Z,9.75
2023-03-24T00:52:55.357Z,9.48
2023-03-24T00:55:23.262Z,9.50
2023-03-24T00:57:50.946Z,9.63
2023-03-24T01:00:24.674Z,9.40
2023-03-24T01:02:54.130Z,9.00
2023-03-24T01:05:28.343Z,9.32
2023-03-24T01:08:04.038Z,8.85
2023-03-24T01:10:33.836Z,9.35
2023-03-24T01:13:01.969Z,8.90
2023-03-24T01:15:33.882Z,8.71
2023-03-24T01:18:03.892Z,8.93
2023-03-24T01:20:35.896Z,9.09
2023-03-24T01:23:05.438Z,9.38
2023-03-24T01:25:32.671Z,9.06
2023-03-24T01:28:02.831Z,8.92
2023-03-24T01:30:31.050Z,9.04
2023-03-24T01:32:58.101Z,8.73
2023-03-24T01:35:28.541Z,8.98
2023-03-24T01:37:56.598Z,8.97
2023-03-24T01:40:30.538Z,8.97
2023-03-24T01:42:57.931Z,9.00
2023-03-24T01:45:43.303Z,8.60
2023-03-24T01:48:13.275Z,8.55
2023-03-24T01:50:42.375Z,8.62
2023-03-24T01:53:09.532Z,8.42
2023-03-24T01:55:37.799Z,7.80
2023-03-24T01:58:05.461Z,8.09
2023-03-24T02:00:32.266Z,8.10
2023-03-24T02:03:03.656Z,8.16
2023-03-24T02:05:35.620Z,7.91
2023-03-24T02:08:28.470Z,7.92
2023-03-24T02:10:57.105Z,8.06
2023-03-24T02:13:23.928Z,8.25
2023-03-24T02:16:00.236Z,8.04
2023-03-24T02:19:04.944Z,8.00
2023-03-24T02:21:47.051Z,7.60
2023-03-24T02:24:44.174Z,7.76
2023-03-24T02:28:01.632Z,8.13
2023-03-24T02:30:43.987Z,8.07
2023-03-24T02:33:21.149Z,8.00
2023-03-24T02:36:19.240Z,7.98
2023-03-24T02:39:38.282Z,7.95
2023-03-24T02:42:26.933Z,7.96
2023-03-24T02:45:09.157Z,8.33
2023-03-24T02:48:20.643Z,7.77
2023-03-24T02:51:06.975Z,8.09
2023-03-24T02:54:22.072Z,8.04
2023-03-24T02:57:17.934Z,7.87
2023-03-24T02:59:54.791Z,7.54
2023-03-24T03:02:34.967Z,7.56
2023-03-24T03:05:07.435Z,7.70
2023-03-24T03:07:39.202Z,7.81
2023-03-24T03:10:18.722Z,7.27
2023-03-24T03:12:52.349Z,7.88
2023-03-24T03:15:32.736Z,7.30
2023-03-24T03:18:10.598Z,7.39
2023-03-24T03:20:50.990Z,7.69
2023-03-24T03:23:26.864Z,7.66
2023-03-24T03:26:02.528Z,7.72
2023-03-24T03:28:30.513Z,7.45
2023-03-24T03:31:01.841Z,7.05
2023-03-24T03:33:39.616Z,6.90
2023-03-24T03:36:23.689Z,6.75
2023-03-24T03:39:20.576Z,6.54
2023-03-24T03:41:55.214Z,6.65
2023-03-24T03:44:29.542Z,6.55
2023-03-24T03:46:56.443Z,6.35
2023-03-24T03:49:26.042Z,6.69
2023-03-24T03:51:54.294Z,6.65
2023-03-24T03:54:23.019Z,6.65
2023-03-24T03:56:50.867Z,6.73
2023-03-24T03:59:37.386Z,7.13
2023-03-24T04:02:49.152Z,6.67
2023-03-24T04:05:18.901Z,7.47
2023-03-24T04:08:08.720Z,7.17
2023-03-24T04:10:54.254Z,7.54
2023-03-24T04:13:49.678Z,7.04
2023-03-24T04:17:02.143Z,7.81
2023-03-24T04:19:44.624Z,7.13
2023-03-24T04:22:31.645Z,7.20
2023-03-24T04:25:10.041Z,6.98
2023-03-24T04:27:49.631Z,6.96
2023-03-24T04:30:23.794Z,7.17
2023-03-24T04:33:08.978Z,6.95
2023-03-24T04:38:33.002Z,7.51
2023-03-24T04:41:01.493Z,7.10
2023-03-24T04:43:43.076Z,7.15
2023-03-24T04:46:10.564Z,7.70
2023-03-24T04:48:50.148Z,7.83
2023-03-24T04:51:44.754Z,7.35
2023-03-24T04:54:13.590Z,7.27
2023-03-24T04:57:11.917Z,7.44
2023-03-24T04:59:38.952Z,7.59
2023-03-24T05:02:05.870Z,7.26
2023-03-24T05:04:37.486Z,6.93
2023-03-24T05:07:14.294Z,6.86
2023-03-24T05:09:45.955Z,6.85
2023-03-24T05:12:13.207Z,7.19
2023-03-24T05:14:43.255Z,7.21
2023-03-24T05:17:20.742Z,7.51
2023-03-24T05:22:43.990Z,7.29
2023-03-24T05:25:11.366Z,7.34
2023-03-24T05:27:38.423Z,7.60
2023-03-24T05:30:07.585Z,7.96
2023-03-24T05:32:34.660Z,7.89
2023-03-24T05:35:01.712Z,7.62
2023-03-24T05:37:28.618Z,7.49
2023-03-24T05:40:00.763Z,7.98
2023-03-24T05:42:27.647Z,7.96
2023-03-24T05:44:54.570Z,8.37
2023-03-24T05:47:21.476Z,8.96
2023-03-24T05:49:48.285Z,10.33
2023-03-24T05:52:16.971Z,8.90
2023-03-24T05:54:43.902Z,10.32
2023-03-24T05:57:18.687Z,10.11
2023-03-24T05:59:48.699Z,10.62
2023-03-24T06:02:15.816Z,10.64
2023-03-24T06:04:48.860Z,9.54
2023-03-24T06:10:07.725Z,10.57
2023-03-24T06:12:34.989Z,9.36
2023-03-24T06:15:02.057Z,8.87
2023-03-24T06:20:21.885Z,8.80
2023-03-24T06:22:57.065Z,10.43
2023-03-24T06:25:28.979Z,10.26
2023-03-24T06:27:56.147Z,11.34
2023-03-24T06:30:41.957Z,11.00
2023-03-24T06:33:09.574Z,10.20
2023-03-24T06:35:46.785Z,10.37
2023-03-24T06:38:15.524Z,12.13
2023-03-24T06:40:45.611Z,12.16
2023-03-24T06:43:12.478Z,13.03
2023-03-24T06:45:40.766Z,12.27
2023-03-24T06:48:07.761Z,11.62
2023-03-24T06:50:35.609Z,11.84
2023-03-24T06:53:03.654Z,12.50
2023-03-24T06:55:30.448Z,11.56
2023-03-24T06:57:57.263Z,13.08
2023-03-24T07:00:26.384Z,12.91
2023-03-24T07:02:53.573Z,12.97
2023-03-24T07:05:20.790Z,11.49
2023-03-24T07:10:23.054Z,12.78
2023-03-24T07:12:49.985Z,12.56
2023-03-24T07:15:17.253Z,13.13
2023-03-24T07:17:44.071Z,12.35
2023-03-24T07:20:11.406Z,13.09
2023-03-24T07:22:39.023Z,13.71
2023-03-24T07:27:48.681Z,13.49
2023-03-24T07:30:15.646Z,13.53
2023-03-24T07:32:42.545Z,13.47
2023-03-24T07:35:12.459Z,12.78
2023-03-24T07:37:41.315Z,13.26
2023-03-24T07:40:12.429Z,14.55
2023-03-24T07:42:41.058Z,14.40
2023-03-24T07:45:10.885Z,14.08
2023-03-24T07:47:39.155Z,13.86
2023-03-24T07:50:11.165Z,14.64
2023-03-24T07:52:41.632Z,14.47
2023-03-24T07:55:14.194Z,15.63
2023-03-24T07:57:46.775Z,15.26
2023-03-24T08:00:18.349Z,14.70
2023-03-24T08:02:48.173Z,14.76
2023-03-24T08:05:17.462Z,15.37
2023-03-24T08:07:53.576Z,15.69
2023-03-24T08:10:23.567Z,15.75
2023-03-24T08:12:51.379Z,15.20
2023-03-24T08:15:19.160Z,15.33
2023-03-24T08:17:49.279Z,15.70
2023-03-24T08:20:16.764Z,16.58
2023-03-24T08:22:46.505Z,15.92
2023-03-24T08:25:13.595Z,15.22
2023-03-24T08:27:43.634Z,15.79
2023-03-24T08:30:14.635Z,16.11
2023-03-24T08:32:56.130Z,16.93
2023-03-24T08:35:26.658Z,16.98
2023-03-24T08:38:04.550Z,16.81
2023-03-24T08:40:35.476Z,16.77
2023-03-24T08:43:08.862Z,17.74
2023-03-24T08:45:36.956Z,17.53
2023-03-24T08:48:06.449Z,17.44
2023-03-24T08:50:36.822Z,17.68
2023-03-24T08:53:04.707Z,17.23
2023-03-24T08:55:34.899Z,17.59
2023-03-24T08:58:05.543Z,16.70
2023-03-24T09:00:32.676Z,17.53
2023-03-24T09:03:02.570Z,18.02
2023-03-24T09:05:43.837Z,17.93
2023-03-24T09:08:13.401Z,17.69
2023-03-24T09:10:41.808Z,17.88
2023-03-24T09:13:09.048Z,17.59
2023-03-24T09:15:36.930Z,18.08
2023-03-24T09:18:04.132Z,17.64
2023-03-24T09:20:31.437Z,18.18
2023-03-24T09:22:58.740Z,17.85
2023-03-24T09:25:25.690Z,17.62
2023-03-24T09:27:53.911Z,18.08
2023-03-24T09:30:21.354Z,18.27
2023-03-24T09:32:48.691Z,19.25
2023-03-24T09:35:16.020Z,19.40
2023-03-24T09:37:44.584Z,17.88
2023-03-24T09:40:30.618Z,18.96
2023-03-24T09:43:05.813Z,18.53
2023-03-24T09:45:50.476Z,19.97
2023-03-24T09:48:39.761Z,19.88
2023-03-24T09:51:15.618Z,20.47
2023-03-24T09:54:28.996Z,19.51
2023-03-24T09:56:57.604Z,19.17
2023-03-24T09:59:54.271Z,19.62
2023-03-24T10:02:25.242Z,20.07
2023-03-24T10:04:53.354Z,19.74
2023-03-24T10:07:34.457Z,19.78
2023-03-24T10:10:04.650Z,19.81
2023-03-24T10:12:43.834Z,20.70
2023-03-24T10:15:37.121Z,20.18
2023-03-24T10:18:34.568Z,20.23
2023-03-24T10:21:15.178Z,20.19
2023-03-24T10:23:59.119Z,20.58
2023-03-24T10:26:29.064Z,20.04
2023-03-24T10:29:28.065Z,20.58
2023-03-24T10:32:04.079Z,20.48
2023-03-24T10:34:34.464Z,20.66
2023-03-24T10:37:04.584Z,20.73
2023-03-24T10:39:44.123Z,20.79
2023-03-24T10:42:27.028Z,20.35
2023-03-24T10:44:54.357Z,20.58
2023-03-24T10:47:33.068Z,21.00
2023-03-24T10:50:14.766Z,21.03
2023-03-24T10:52:50.785Z,20.78
2023-03-24T10:55:21.417Z,20.79
2023-03-24T10:57:51.526Z,20.50
2023-03-24T11:00:26.753Z,20.38
2023-03-24T11:03:09.037Z,20.99
2023-03-24T11:05:38.963Z,21.22
2023-03-24T11:08:18.395Z,21.30
2023-03-24T11:10:45.271Z,21.42
2023-03-24T11:13:26.806Z,21.55
2023-03-24T11:16:15.654Z,21.68
2023-03-24T11:18:58.619Z,21.65
2023-03-24T11:21:28.339Z,20.98
2023-03-24T11:24:02.802Z,21.50
2023-03-24T11:26:38.608Z,22.15
2023-03-24T11:29:17.633Z,21.89
2023-03-24T11:32:05.719Z,21.85
2023-03-24T11:34:39.076Z,21.93
2023-03-24T11:37:23.604Z,21.92
2023-03-24T11:40:13.599Z,22.15
2023-03-24T11:42:58.889Z,22.08
2023-03-24T11:45:34.946Z,21.89
2023-03-24T11:48:05.261Z,21.65
2023-03-24T11:50:40.073Z,21.77
2023-03-24T11:53:12.223Z,21.97
2023-03-24T11:55:51.350Z,22.02
2023-03-24T11:58:26.776Z,22.37
2023-03-24T12:01:21.662Z,22.21
2023-03-24T12:04:06.797Z,22.60
2023-03-24T12:07:29.560Z,22.90
2023-03-24T12:10:17.789Z,22.72
2023-03-24T12:13:07.066Z,21.69
2023-03-24T12:15:57.338Z,22.09
2023-03-24T12:18:49.383Z,22.42
2023-03-24T12:21:43.682Z,22.60
2023-03-24T12:24:22.997Z,22.60
2023-03-24T12:26:55.188Z,22.43
2023-03-24T12:30:00.157Z,22.65
2023-03-24T12:32:37.846Z,22.95
2023-03-24T12:35:28.845Z,23.10
2023-03-24T12:38:21.305Z,23.39
2023-03-24T12:41:17.590Z,23.14
2023-03-24T12:43:50.258Z,22.15
2023-03-24T12:46:46.676Z,23.04
2023-03-24T12:49:32.650Z,23.04
2023-03-24T12:52:37.414Z,23.12
2023-03-24T12:55:08.377Z,23.38
2023-03-24T12:57:48.590Z,23.65
2023-03-24T13:00:36.582Z,23.78
2023-03-24T13:03:31.798Z,23.35
2023-03-24T13:06:16.886Z,23.44
2023-03-24T13:08:49.784Z,23.23
2023-03-24T13:11:32.272Z,23.47
2023-03-24T13:14:03.973Z,23.54
2023-03-24T13:16:36.334Z,23.36
2023-03-24T13:19:03.991Z,23.72
2023-03-24T13:21:35.250Z,24.01
2023-03-24T13:24:14.489Z,24.01
2023-03-24T13:29:49.472Z,24.07
2023-03-24T13:32:24.099Z,23.23
2023-03-24T13:35:18.270Z,23.55
2023-03-24T13:37:58.042Z,23.84
2023-03-24T13:40:28.885Z,23.74
2023-03-24T13:42:59.879Z,24.06
2023-03-24T13:45:39.507Z,23.71
2023-03-24T13:48:07.128Z,24.06
2023-03-24T13:50:41.701Z,24.49
2023-03-24T13:53:18.208Z,24.08
2023-03-24T13:55:52.660Z,24.16
2023-03-24T13:58:28.766Z,24.35
2023-03-24T14:01:09.267Z,23.87
2023-03-24T14:03:43.385Z,23.83
2023-03-24T14:06:48.041Z,23.61
2023-03-24T14:09:34.519Z,23.64
2023-03-24T14:12:08.415Z,23.56
2023-03-24T14:14:57.185Z,23.68
2023-03-24T14:17:30.356Z,23.35
2023-03-24T14:20:09.224Z,23.07
2023-03-24T14:22:41.547Z,23.06
2023-03-24T14:25:23.676Z,22.80
2023-03-24T14:28:08.255Z,23.20
2023-03-24T14:30:44.686Z,23.11
2023-03-24T14:33:25.670Z,23.06
2023-03-24T14:36:02.246Z,23.15
2023-03-24T14:38:29.170Z,22.41
2023-03-24T14:41:06.284Z,22.93
2023-03-24T14:43:41.834Z,22.65
2023-03-24T14:46:21.416Z,22.14
2023-03-24T14:49:23.585Z,22.39
2023-03-24T14:52:16.562Z,22.81
2023-03-24T14:55:01.221Z,22.68
2023-03-24T14:57:41.553Z,22.50
2023-03-24T15:00:42.252Z,22.53
2023-03-24T15:03:11.557Z,21.82
2023-03-24T15:05:38.986Z,21.90
2023-03-24T15:08:06.266Z,21.78
2023-03-24T15:11:07.781Z,21.52
2023-03-24T15:13:34.678Z,21.76
2023-03-24T15:16:27.778Z,21.44
2023-03-24T15:19:01.937Z,21.55
2023-03-24T15:21:37.436Z,21.64
2023-03-24T15:24:29.543Z,21.89
2023-03-24T15:27:20.849Z,21.53
2023-03-24T15:29:57.911Z,21.58
2023-03-24T15:32:28.078Z,21.32
2023-03-24T15:34:58.986Z,21.47
2023-03-24T15:37:40.604Z,21.74
2023-03-24T15:40:30.604Z,21.68
2023-03-24T15:43:17.450Z,21.57
2023-03-24T15:45:51.068Z,21.75
2023-03-24T15:48:51.555Z,21.51
2023-03-24T15:51:18.727Z,21.22
2023-03-24T15:54:04.879Z,21.13
2023-03-24T15:56:32.348Z,21.05
2023-03-24T15:59:16.100Z,21.19
2023-03-24T16:01:45.134Z,21.11
2023-03-24T16:04:15.948Z,20.87
2023-03-24T16:06:49.495Z,21.01
2023-03-24T16:09:27.954Z,20.88
2023-03-24T16:11:55.313Z,20.80
2023-03-24T16:14:27.436Z,20.74
2023-03-24T16:17:00.177Z,21.00
2023-03-24T16:19:28.044Z,20.75
2023-03-24T16:21:55.390Z,20.63
2023-03-24T16:24:23.788Z,20.55
2023-03-24T16:26:50.820Z,20.40
2023-03-24T16:29:22.709Z,20.41
2023-03-24T16:32:01.289Z,20.24
2023-03-24T16:34:28.483Z,20.45
2023-03-24T16:36:56.705Z,20.46
2023-03-24T16:39:29.632Z,20.36
2023-03-24T16:41:56.802Z,20.22
2023-03-24T16:44:24.512Z,20.12
2023-03-24T16:46:58.781Z,19.96
2023-03-24T17:09:08.676Z,19.21
2023-03-24T17:11:48.117Z,19.33
2023-03-24T17:15:06.643Z,19.10
2023-03-24T17:18:27.600Z,19.07
2023-03-24T17:21:10.526Z,19.14
2023-03-24T17:23:37.505Z,19.12
2023-03-24T17:26:05.326Z,18.82
2023-03-24T17:28:32.423Z,18.83
2023-03-24T17:30:59.465Z,18.87
2023-03-24T17:33:26.434Z,18.75
2023-03-24T17:35:54.710Z,18.67
2023-03-24T17:38:21.572Z,18.35
2023-03-24T17:40:48.760Z,18.58
2023-03-24T17:43:15.998Z,18.44
2023-03-24T17:45:42.868Z,18.10
2023-03-24T17:48:10.026Z,18.04
2023-03-24T17:50:37.125Z,18.12
2023-03-24T17:53:04.028Z,18.40
2023-03-24T17:55:31.142Z,18.06
2023-03-24T17:57:58.459Z,17.84
2023-03-24T18:00:25.410Z,18.10
2023-03-24T18:02:52.893Z,18.12
2023-03-24T18:05:20.313Z,17.75
2023-03-24T18:07:47.443Z,17.70
2023-03-24T18:10:17.494Z,17.32
2023-03-24T18:12:44.558Z,17.03
2023-03-24T18:15:12.392Z,17.41
2023-03-24T18:17:39.622Z,17.37
2023-03-24T18:20:28.103Z,17.20
2023-03-24T18:22:55.218Z,17.08
2023-03-24T18:25:22.297Z,17.05
2023-03-24T18:27:49.838Z,16.64
2023-03-24T18:30:25.185Z,16.92
2023-03-24T18:32:52.144Z,16.63
2023-03-24T18:35:24.713Z,16.59
2023-03-24T18:37:52.025Z,16.19
2023-03-24T18:40:19.018Z,16.43
2023-03-24T18:59:01.250Z,15.92
2023-03-24T19:01:33.406Z,15.76
2023-03-24T19:04:00.377Z,15.80
2023-03-24T19:06:31.474Z,15.95
2023-03-24T19:08:59.694Z,15.86
2023-03-24T19:11:26.842Z,15.82
2023-03-24T19:13:56.821Z,15.27
2023-03-24T19:16:27.723Z,15.65
2023-03-24T19:18:58.129Z,15.44
2023-03-24T19:21:25.717Z,15.64
2023-03-24T19:23:59.892Z,15.32
2023-03-24T19:26:26.694Z,15.41
2023-03-24T19:28:53.775Z,15.44
2023-03-24T19:31:21.296Z,15.20
2023-03-24T19:33:52.586Z,15.45
2023-03-24T19:36:20.105Z,15.12
2023-03-24T19:38:47.124Z,15.38
2023-03-24T19:41:15.288Z,15.25
2023-03-24T19:43:42.538Z,15.19
2023-03-24T19:46:12.349Z,15.36
2023-03-24T19:48:39.277Z,14.99
2023-03-24T19:51:06.403Z,14.95
2023-03-24T19:53:33.869Z,15.18
2023-03-24T19:56:08.591Z,14.97
2023-03-24T19:58:36.182Z,15.27
2023-03-24T20:01:03.255Z,14.91
2023-03-24T20:03:30.297Z,14.94
2023-03-24T20:06:03.398Z,14.87
2023-03-24T20:08:33.217Z,14.73
2023-03-24T20:11:34.728Z,14.89
2023-03-24T20:14:20.056Z,14.95
2023-03-24T20:19:41.819Z,14.67
2023-03-24T20:22:08.738Z,14.44
2023-03-24T20:24:38.652Z,14.69
2023-03-24T20:27:06.928Z,14.51
2023-03-24T20:29:34.091Z,14.74
2023-03-24T20:32:00.906Z,14.84
2023-03-24T20:34:28.282Z,14.66
2023-03-24T20:36:55.202Z,14.44
2023-03-24T20:39:22.808Z,14.30
2023-03-24T20:41:50.145Z,14.19
2023-03-24T20:57:47.997Z,13.83
2023-03-24T21:00:18.268Z,13.50
2023-03-24T21:02:48.299Z,13.79
2023-03-24T21:05:40.909Z,13.62
2023-03-24T21:08:45.298Z,13.71
2023-03-24T21:11:39.900Z,13.46
2023-03-24T21:14:13.292Z,13.54
2023-03-24T21:23:12.112Z,14.13
2023-03-24T21:26:09.928Z,13.81
2023-03-24T22:13:19.464Z,12.89
2023-03-24T22:15:55.376Z,12.83
2023-03-24T22:21:21.193Z,13.26
2023-03-24T22:23:50.744Z,13.33
2023-03-24T22:26:20.966Z,13.33
2023-03-24T22:28:51.693Z,12.81
2023-03-24T22:31:20.497Z,13.06
2023-03-24T22:34:10.973Z,12.93
2023-03-24T22:36:39.260Z,12.93
2023-03-24T22:53:12.344Z,12.55
2023-03-24T22:55:42.275Z,12.66
2023-03-24T22:58:41.722Z,12.42
2023-03-24T23:01:15.708Z,12.47
2023-03-24T23:04:43.508Z,12.36
2023-03-24T23:07:10.805Z,12.57
2023-03-24T23:19:14.295Z,12.25
2023-03-24T23:21:49.103Z,12.40
2023-03-24T23:24:16.666Z,12.08
2023-03-24T23:27:07.434Z,12.27
2023-03-24T23:29:34.599Z,11.84
2023-03-24T23:33:06.530Z,12.00
2023-03-24T23:35:54.777Z,11.85
2023-03-24T23:38:34.449Z,12.14
2023-03-24T23:41:08.558Z,11.91
2023-03-24T23:43:40.321Z,12.15
2023-03-24T23:46:13.755Z,12.17
2023-03-24T23:48:44.148Z,12.19
2023-03-24T23:51:12.704Z,12.16
2023-03-24T23:53:45.312Z,11.68
2023-03-24T23:56:14.609Z,11.72
2023-03-24T23:58:42.933Z,11.73
